createdAt,value
2019-05-01T00:01:20.486Z,75.22
2019-05-01T00:04:06.669Z,75.99
2019-05-01T00:06:40.384Z,75.48
2019-05-01T00:09:12.304Z,75.44
2019-05-01T00:11:44.018Z,75.57
2019-05-01T00:14:15.410Z,76.33
2019-05-01T00:16:46.806Z,75.89
2019-05-01T00:19:17.775Z,75.54
2019-05-01T00:21:48.795Z,76.45
2019-05-01T00:24:19.841Z,76.14
2019-05-01T00:26:50.826Z,75.64
2019-05-01T00:29:22.035Z,75.94
2019-05-01T00:31:53.010Z,77.14
2019-05-01T00:34:24.265Z,76.50
2019-05-01T00:36:55.392Z,76.52
2019-05-01T00:39:26.358Z,75.63
2019-05-01T00:41:57.331Z,76.72
2019-05-01T00:44:28.430Z,76.55
2019-05-01T00:46:59.413Z,76.53
2019-05-01T00:49:30.518Z,76.20
2019-05-01T00:52:01.511Z,76.11
2019-05-01T00:54:34.217Z,75.86
2019-05-01T00:57:24.162Z,76.73
2019-05-01T01:00:13.024Z,76.42
2019-05-01T01:02:47.515Z,76.27
2019-05-01T01:05:18.472Z,76.79
2019-05-01T01:07:49.446Z,76.58
2019-05-01T01:10:20.567Z,76.52
2019-05-01T01:12:51.646Z,76.19
2019-05-01T01:15:22.606Z,77.60
2019-05-01T01:17:53.583Z,77.98
2019-05-01T01:20:24.591Z,77.15
2019-05-01T01:22:55.721Z,76.82
2019-05-01T01:25:26.805Z,76.90
2019-05-01T01:27:57.928Z,77.16
2019-05-01T01:30:29.039Z,77.09
2019-05-01T01:33:00.150Z,77.29
2019-05-01T01:35:31.126Z,76.73
2019-05-01T01:38:02.225Z,76.44
2019-05-01T01:40:33.782Z,76.82
2019-05-01T01:43:35.838Z,77.37
2019-05-01T01:46:09.048Z,77.23
2019-05-01T01:48:40.470Z,77.33
2019-05-01T01:51:11.704Z,77.00
2019-05-01T01:53:43.172Z,77.18
2019-05-01T01:56:14.621Z,77.42
2019-05-01T01:58:46.077Z,77.10
2019-05-01T02:01:45.215Z,77.13
2019-05-01T02:04:41.232Z,76.74
2019-05-01T02:07:12.549Z,76.94
2019-05-01T02:09:43.670Z,77.76
2019-05-01T02:12:15.175Z,77.77
2019-05-01T02:14:46.228Z,77.69
2019-05-01T02:17:17.269Z,77.61
2019-05-01T02:19:48.254Z,77.44
2019-05-01T02:22:19.209Z,77.68
2019-05-01T02:24:50.196Z,77.32
2019-05-01T02:27:29.667Z,76.83
2019-05-01T02:30:03.253Z,76.70
2019-05-01T02:32:35.589Z,76.74
2019-05-01T02:35:07.009Z,77.24
2019-05-01T02:37:39.731Z,77.36
2019-05-01T02:41:01.104Z,78.30
2019-05-01T02:43:36.230Z,77.53
2019-05-01T02:46:09.359Z,77.94
2019-05-01T02:48:45.189Z,77.68
2019-05-01T02:51:17.268Z,77.51
2019-05-01T02:53:50.177Z,77.72
2019-05-01T02:56:36.828Z,77.51
2019-05-01T02:59:09.806Z,77.55
2019-05-01T03:01:47.147Z,78.09
2019-05-01T03:04:14.459Z,77.15
2019-05-01T03:06:46.448Z,77.32
2019-05-01T03:09:18.977Z,77.52
2019-05-01T03:11:53.135Z,77.87
2019-05-01T03:14:28.019Z,77.61
2019-05-01T03:17:02.954Z,78.10
2019-05-01T03:19:53.937Z,77.40
2019-05-01T03:22:44.276Z,78.29
2019-05-01T03:25:15.809Z,78.19
2019-05-01T03:27:47.027Z,77.80
2019-05-01T03:30:18.195Z,77.66
2019-05-01T03:32:49.546Z,77.81
2019-05-01T03:35:20.758Z,78.31
2019-05-01T03:37:52.026Z,77.70
2019-05-01T03:40:23.356Z,77.83
2019-05-01T03:42:54.518Z,77.65
2019-05-01T03:45:26.268Z,77.85
2019-05-01T03:47:57.452Z,77.59
2019-05-01T03:50:28.693Z,77.16
2019-05-01T03:52:59.930Z,76.74
2019-05-01T03:55:31.257Z,77.35
2019-05-01T03:58:02.537Z,77.68
2019-05-01T04:00:52.815Z,77.98
2019-05-01T04:03:31.124Z,77.60
2019-05-01T04:06:02.547Z,76.89
2019-05-01T04:08:34.040Z,77.41
2019-05-01T04:11:05.829Z,77.56
2019-05-01T04:13:36.859Z,77.63
2019-05-01T04:16:08.483Z,77.06
2019-05-01T04:18:40.152Z,76.99
2019-05-01T04:21:11.283Z,76.71
2019-05-01T04:23:43.783Z,76.83
2019-05-01T04:26:15.209Z,77.12
2019-05-01T04:28:53.030Z,77.22
2019-05-01T04:31:52.237Z,77.24
2019-05-01T04:34:38.842Z,76.79
2019-05-01T04:37:11.533Z,76.32
2019-05-01T04:39:42.847Z,76.14
2019-05-01T04:42:14.010Z,75.89
2019-05-01T04:44:46.585Z,76.02
2019-05-01T04:47:18.471Z,76.44
2019-05-01T04:49:49.663Z,75.71
2019-05-01T04:52:20.723Z,75.12
2019-05-01T04:54:52.272Z,74.74
2019-05-01T04:57:23.825Z,75.73
2019-05-01T04:59:55.287Z,74.62
2019-05-01T05:02:32.978Z,74.54
2019-05-01T05:05:05.819Z,74.92
2019-05-01T05:07:37.473Z,76.34
2019-05-01T05:10:09.766Z,75.17
2019-05-01T05:12:46.582Z,74.02
2019-05-01T05:15:35.950Z,74.11
2019-05-01T05:18:08.303Z,74.20
2019-05-01T05:20:39.541Z,74.13
2019-05-01T05:23:10.988Z,73.76
2019-05-01T05:25:42.948Z,74.30
2019-05-01T05:28:15.438Z,74.40
2019-05-01T05:30:47.018Z,74.28
2019-05-01T05:33:20.189Z,73.99
2019-05-01T05:35:53.484Z,73.48
2019-05-01T05:38:32.886Z,73.48
2019-05-01T05:41:05.128Z,72.96
2019-05-01T05:43:37.289Z,73.69
2019-05-01T05:46:08.897Z,72.79
2019-05-01T05:48:40.253Z,72.97
2019-05-01T05:51:34.063Z,72.29
2019-05-01T05:54:14.655Z,72.72
2019-05-01T05:56:53.518Z,71.97
2019-05-01T05:59:29.066Z,72.00
2019-05-01T06:02:12.090Z,72.32
2019-05-01T06:05:13.688Z,73.61
2019-05-01T06:08:05.346Z,72.38
2019-05-01T06:10:53.548Z,72.56
2019-05-01T06:13:41.423Z,71.64
2019-05-01T06:16:19.814Z,71.01
2019-05-01T06:19:00.066Z,71.75
2019-05-01T06:21:46.823Z,70.82
2019-05-01T06:24:24.385Z,71.21
2019-05-01T06:26:55.845Z,69.75
2019-05-01T06:29:30.990Z,69.80
2019-05-01T06:32:00.097Z,69.60
2019-05-01T06:34:31.673Z,69.59
2019-05-01T06:37:02.813Z,68.80
2019-05-01T06:39:34.375Z,66.69
2019-05-01T06:42:09.819Z,64.81
2019-05-01T06:44:49.668Z,62.63
2019-05-01T06:47:32.840Z,62.28
2019-05-01T06:50:15.955Z,62.13
2019-05-01T06:52:47.648Z,61.12
2019-05-01T06:55:22.550Z,62.21
2019-05-01T06:57:52.220Z,61.18
2019-05-01T07:00:23.230Z,61.12
2019-05-01T07:02:56.001Z,61.31
2019-05-01T07:05:29.107Z,60.33
2019-05-01T07:08:00.749Z,56.13
2019-05-01T07:10:43.773Z,55.59
2019-05-01T07:13:06.599Z,55.02
2019-05-01T07:15:38.698Z,53.14
2019-05-01T07:18:11.494Z,50.40
2019-05-01T07:20:51.448Z,47.21
2019-05-01T07:23:24.034Z,45.55
2019-05-01T07:25:55.613Z,44.24
2019-05-01T07:28:28.773Z,41.83
2019-05-01T07:31:13.921Z,42.93
2019-05-01T07:33:47.131Z,40.06
2019-05-01T07:36:19.383Z,37.97
2019-05-01T07:38:50.824Z,40.20
2019-05-01T07:41:21.883Z,38.21
2019-05-01T07:44:17.903Z,37.04
2019-05-01T07:46:56.140Z,37.19
2019-05-01T07:49:57.941Z,35.43
2019-05-01T07:52:30.178Z,35.01
2019-05-01T07:55:01.491Z,39.43
2019-05-01T07:57:34.151Z,37.57
2019-05-01T08:00:11.171Z,37.30
2019-05-01T08:02:42.385Z,39.56
2019-05-01T08:05:13.585Z,36.79
2019-05-01T08:07:44.631Z,39.42
2019-05-01T08:10:15.861Z,40.45
2019-05-01T08:12:46.894Z,42.82
2019-05-01T08:15:18.085Z,44.69
2019-05-01T08:17:53.165Z,47.42
2019-05-01T08:20:31.066Z,43.84
2019-05-01T08:23:02.055Z,46.36
2019-05-01T08:25:34.438Z,43.55
2019-05-01T08:28:12.279Z,39.34
2019-05-01T08:31:09.740Z,42.79
2019-05-01T08:33:55.485Z,40.80
2019-05-01T08:36:26.532Z,41.98
2019-05-01T08:38:57.592Z,43.95
2019-05-01T08:41:32.015Z,44.86
2019-05-01T08:44:01.358Z,46.92
2019-05-01T08:46:40.253Z,46.45
2019-05-01T08:49:36.399Z,39.46
2019-05-01T08:52:12.541Z,42.20
2019-05-01T08:54:40.178Z,40.73
2019-05-01T08:57:11.151Z,42.52
2019-05-01T08:59:42.186Z,41.90
2019-05-01T09:02:13.339Z,44.34
2019-05-01T09:04:44.413Z,46.92
2019-05-01T09:07:19.069Z,46.05
2019-05-01T09:09:48.267Z,42.73
2019-05-01T09:12:19.252Z,42.18
2019-05-01T09:14:51.285Z,41.52
2019-05-01T09:17:22.621Z,41.79
2019-05-01T09:19:53.650Z,41.19
2019-05-01T09:22:24.749Z,37.15
2019-05-01T09:25:00.074Z,37.88
2019-05-01T09:27:45.269Z,40.83
2019-05-01T09:30:27.015Z,39.82
2019-05-01T09:32:56.826Z,40.35
2019-05-01T09:35:27.991Z,41.93
2019-05-01T09:37:58.996Z,40.70
2019-05-01T09:40:30.103Z,39.49
2019-05-01T09:43:01.241Z,41.30
2019-05-01T09:45:32.289Z,40.04
2019-05-01T09:48:03.394Z,40.67
2019-05-01T09:50:36.044Z,40.55
2019-05-01T09:53:29.717Z,42.06
2019-05-01T09:56:09.212Z,38.42
2019-05-01T09:58:40.288Z,39.25
2019-05-01T10:01:11.360Z,39.71
2019-05-01T10:03:44.779Z,41.04
2019-05-01T10:06:17.192Z,40.31
2019-05-01T10:08:48.528Z,40.72
2019-05-01T10:11:19.504Z,38.81
2019-05-01T10:13:53.615Z,39.30
2019-05-01T10:16:23.278Z,37.00
2019-05-01T10:18:54.299Z,39.15
2019-05-01T10:21:27.334Z,35.52
2019-05-01T10:23:57.960Z,36.43
2019-05-01T10:26:30.615Z,36.07
2019-05-01T10:29:21.455Z,36.87
2019-05-01T10:32:05.749Z,37.71
2019-05-01T10:34:44.629Z,37.71
2019-05-01T10:37:15.673Z,35.69
2019-05-01T10:39:50.256Z,35.39
2019-05-01T10:42:19.337Z,37.12
2019-05-01T10:44:50.308Z,36.52
2019-05-01T10:47:21.461Z,37.17
2019-05-01T10:49:52.427Z,35.82
2019-05-01T10:52:23.407Z,37.20
2019-05-01T10:54:54.462Z,35.52
2019-05-01T10:57:25.441Z,38.64
2019-05-01T10:59:56.423Z,35.71
2019-05-01T11:02:27.908Z,36.89
2019-05-01T11:04:58.966Z,33.92
2019-05-01T11:07:29.954Z,34.40
2019-05-01T11:10:00.998Z,33.78
2019-05-01T11:12:33.061Z,36.29
2019-05-01T11:15:04.363Z,34.37
2019-05-01T11:17:36.847Z,35.84
2019-05-01T11:20:08.418Z,35.71
2019-05-01T11:22:39.419Z,36.50
2019-05-01T11:25:11.217Z,34.48
2019-05-01T11:27:43.202Z,35.25
2019-05-01T11:30:15.173Z,34.73
2019-05-01T11:33:11.011Z,34.77
2019-05-01T11:36:09.526Z,35.65
2019-05-01T11:38:46.316Z,37.02
2019-05-01T11:41:24.053Z,34.00
2019-05-01T11:43:55.093Z,34.47
2019-05-01T11:46:26.140Z,33.70
2019-05-01T11:48:57.152Z,33.63
2019-05-01T11:51:28.239Z,33.80
2019-05-01T11:54:02.064Z,35.76
2019-05-01T11:56:31.914Z,34.37
2019-05-01T11:59:03.003Z,32.56
2019-05-01T12:01:34.096Z,32.34
2019-05-01T12:04:05.213Z,32.29
2019-05-01T12:06:36.180Z,33.30
2019-05-01T12:09:08.262Z,34.44
2019-05-01T12:15:27.667Z,32.49
2019-05-01T12:17:58.672Z,31.50
2019-05-01T12:20:29.870Z,31.82
2019-05-01T12:23:01.034Z,32.16
2019-05-01T12:25:32.110Z,32.19
2019-05-01T12:28:03.223Z,33.84
2019-05-01T12:30:34.282Z,33.45
2019-05-01T12:33:05.446Z,33.49
2019-05-01T12:35:36.442Z,32.63
2019-05-01T12:38:07.441Z,33.78
2019-05-01T12:40:38.609Z,34.32
2019-05-01T12:43:12.267Z,33.63
2019-05-01T12:45:45.596Z,32.02
2019-05-01T12:48:16.574Z,30.79
2019-05-01T12:50:49.531Z,32.02
2019-05-01T12:53:28.903Z,32.98
2019-05-01T12:56:37.193Z,31.70
2019-05-01T12:59:08.179Z,34.79
2019-05-01T13:01:39.167Z,32.53
2019-05-01T13:04:10.150Z,32.23
2019-05-01T13:06:49.095Z,33.59
2019-05-01T13:09:14.110Z,31.91
2019-05-01T13:11:45.162Z,32.78
2019-05-01T13:14:16.230Z,32.11
2019-05-01T13:16:47.217Z,30.51
2019-05-01T13:19:18.289Z,32.24
2019-05-01T13:21:49.295Z,33.54
2019-05-01T13:24:20.275Z,32.73
2019-05-01T13:26:57.554Z,33.26
2019-05-01T13:29:33.537Z,30.96
2019-05-01T13:32:13.731Z,31.83
2019-05-01T13:34:44.695Z,31.41
2019-05-01T13:37:15.789Z,32.55
2019-05-01T13:39:46.846Z,31.14
2019-05-01T13:42:17.850Z,30.62
2019-05-01T13:44:48.823Z,30.85
2019-05-01T13:47:19.931Z,30.90
2019-05-01T13:49:50.986Z,31.69
2019-05-01T13:52:22.043Z,31.68
2019-05-01T13:54:53.319Z,30.80
2019-05-01T13:57:24.516Z,30.52
2019-05-01T13:59:55.505Z,30.03
2019-05-01T14:02:26.799Z,31.01
2019-05-01T14:04:57.771Z,30.66
2019-05-01T14:07:28.827Z,31.07
2019-05-01T14:09:59.814Z,31.04
2019-05-01T14:12:30.932Z,31.67
2019-05-01T14:15:01.911Z,33.02
2019-05-01T14:17:33.207Z,31.65
2019-05-01T14:20:30.085Z,33.74
2019-05-01T14:23:05.835Z,30.78
2019-05-01T14:25:55.767Z,32.09
2019-05-01T14:28:26.756Z,32.56
2019-05-01T14:30:57.755Z,31.32
2019-05-01T14:33:28.820Z,31.61
2019-05-01T14:35:59.847Z,31.37
2019-05-01T14:38:30.865Z,30.18
2019-05-01T14:41:02.043Z,30.39
2019-05-01T14:43:34.184Z,32.88
2019-05-01T14:46:05.405Z,32.76
2019-05-01T14:48:36.477Z,32.59
2019-05-01T14:51:07.544Z,30.93
2019-05-01T14:53:38.628Z,33.20
2019-05-01T14:56:10.378Z,34.92
2019-05-01T14:58:41.380Z,34.22
2019-05-01T15:01:12.468Z,33.78
2019-05-01T15:03:43.472Z,32.28
2019-05-01T15:06:14.509Z,32.60
2019-05-01T15:08:45.512Z,34.65
2019-05-01T15:11:16.501Z,32.60
2019-05-01T15:14:15.783Z,32.64
2019-05-01T15:17:02.784Z,34.66
2019-05-01T15:19:38.161Z,32.73
2019-05-01T15:22:09.175Z,33.02
2019-05-01T15:24:40.247Z,34.68
2019-05-01T15:27:11.299Z,33.61
2019-05-01T15:29:42.386Z,33.54
2019-05-01T15:32:13.353Z,33.41
2019-05-01T15:34:44.420Z,34.21
2019-05-01T15:37:16.551Z,34.35
2019-05-01T15:39:56.926Z,34.64
2019-05-01T15:42:42.736Z,35.76
2019-05-01T15:45:13.895Z,35.06
2019-05-01T15:47:44.955Z,33.63
2019-05-01T15:50:16.436Z,35.46
2019-05-01T15:52:47.567Z,35.36
2019-05-01T15:55:18.714Z,36.12
2019-05-01T15:57:49.861Z,34.93
2019-05-01T16:00:21.522Z,34.21
2019-05-01T16:02:52.498Z,33.83
2019-05-01T16:05:23.484Z,33.45
2019-05-01T16:07:54.589Z,34.37
2019-05-01T16:10:29.905Z,33.83
2019-05-01T16:13:02.358Z,34.83
2019-05-01T16:15:34.969Z,33.73
2019-05-01T16:18:07.122Z,34.40
2019-05-01T16:20:38.141Z,33.07
2019-05-01T16:23:09.199Z,33.28
2019-05-01T16:25:40.206Z,34.07
2019-05-01T16:28:11.207Z,34.16
2019-05-01T16:30:42.201Z,33.85
2019-05-01T16:33:13.260Z,35.11
2019-05-01T16:35:44.265Z,36.03
2019-05-01T16:38:24.957Z,34.84
2019-05-01T16:41:07.853Z,37.76
2019-05-01T16:43:38.834Z,34.76
2019-05-01T16:46:10.096Z,35.33
2019-05-01T16:49:05.250Z,34.71
2019-05-01T16:51:37.216Z,34.45
2019-05-01T16:54:08.774Z,35.76
2019-05-01T16:56:39.768Z,36.64
2019-05-01T16:59:11.091Z,37.94
2019-05-01T17:01:49.287Z,37.19
2019-05-01T17:04:42.347Z,36.48
2019-05-01T17:07:31.106Z,37.20
2019-05-01T17:10:14.394Z,37.75
2019-05-01T17:12:47.002Z,39.25
2019-05-01T17:15:26.888Z,38.25
2019-05-01T17:17:57.872Z,38.20
2019-05-01T17:20:29.156Z,39.61
2019-05-01T17:23:01.270Z,37.85
2019-05-01T17:25:32.394Z,37.87
2019-05-01T17:28:08.345Z,37.89
2019-05-01T17:30:51.959Z,37.81
2019-05-01T17:33:23.076Z,38.09
2019-05-01T17:35:54.127Z,37.99
2019-05-01T17:38:25.591Z,40.96
2019-05-01T17:40:56.605Z,40.33
2019-05-01T17:43:27.610Z,40.20
2019-05-01T17:45:58.703Z,39.71
2019-05-01T17:48:33.681Z,38.86
2019-05-01T17:51:02.435Z,39.64
2019-05-01T17:53:33.449Z,40.91
2019-05-01T17:56:04.643Z,40.44
2019-05-01T17:58:35.636Z,41.29
2019-05-01T18:01:27.923Z,42.71
2019-05-01T18:04:29.572Z,43.52
2019-05-01T18:07:00.873Z,43.54
2019-05-01T18:09:32.107Z,44.24
2019-05-01T18:12:03.181Z,41.94
2019-05-01T18:14:34.194Z,41.87
2019-05-01T18:17:05.347Z,42.26
2019-05-01T18:19:36.323Z,43.62
2019-05-01T18:22:14.445Z,44.59
2019-05-01T18:24:58.534Z,44.64
2019-05-01T18:27:49.875Z,45.34
2019-05-01T18:30:22.321Z,46.02
2019-05-01T18:32:53.498Z,46.86
2019-05-01T18:35:24.692Z,46.99
2019-05-01T18:38:01.348Z,47.00
2019-05-01T18:40:54.390Z,48.05
2019-05-01T18:43:27.049Z,48.14
2019-05-01T18:45:59.590Z,49.00
2019-05-01T18:48:30.736Z,49.50
2019-05-01T18:51:01.717Z,49.95
2019-05-01T18:53:32.746Z,50.82
2019-05-01T18:56:05.494Z,51.35
2019-05-01T18:58:36.470Z,51.30
2019-05-01T19:01:09.326Z,51.37
2019-05-01T19:03:42.296Z,52.01
2019-05-01T19:06:13.383Z,52.46
2019-05-01T19:08:45.130Z,52.18
2019-05-01T19:11:16.564Z,53.01
2019-05-01T19:13:47.652Z,53.66
2019-05-01T19:16:18.657Z,53.82
2019-05-01T19:18:49.681Z,53.76
2019-05-01T19:21:23.823Z,54.81
2019-05-01T19:24:00.564Z,55.00
2019-05-01T19:26:28.102Z,54.38
2019-05-01T19:28:59.244Z,55.09
2019-05-01T19:31:30.456Z,54.92
2019-05-01T19:34:01.521Z,56.06
2019-05-01T19:36:32.553Z,56.88
2019-05-01T19:39:06.736Z,57.03
2019-05-01T19:41:37.116Z,58.00
2019-05-01T19:44:08.193Z,58.42
2019-05-01T19:46:39.311Z,58.11
2019-05-01T19:49:10.433Z,58.57
2019-05-01T19:51:41.582Z,59.16
2019-05-01T19:54:12.591Z,59.11
2019-05-01T19:56:44.774Z,59.40
2019-05-01T19:59:16.043Z,58.48
2019-05-01T20:01:50.155Z,57.98
2019-05-01T20:04:21.494Z,58.18
2019-05-01T20:06:52.579Z,58.57
2019-05-01T20:09:23.659Z,58.63
2019-05-01T20:11:55.496Z,58.24
2019-05-01T20:14:26.604Z,59.08
2019-05-01T20:16:59.216Z,58.90
2019-05-01T20:19:31.328Z,59.33
2019-05-01T20:22:02.618Z,59.35
2019-05-01T20:24:33.671Z,59.92
2019-05-01T20:27:05.271Z,59.92
2019-05-01T20:29:36.828Z,60.07
2019-05-01T20:32:08.055Z,60.54
2019-05-01T20:34:39.078Z,60.44
2019-05-01T20:37:10.044Z,60.55
2019-05-01T20:39:42.115Z,60.92
2019-05-01T20:42:13.178Z,61.16
2019-05-01T20:44:44.444Z,61.43
2019-05-01T20:47:15.420Z,61.64
2019-05-01T20:49:46.443Z,61.56
2019-05-01T20:52:17.481Z,61.60
2019-05-01T20:54:48.461Z,61.88
2019-05-01T20:57:25.943Z,61.76
2019-05-01T20:59:56.969Z,62.00
2019-05-01T21:02:28.137Z,62.71
2019-05-01T21:05:23.787Z,62.75
2019-05-01T21:08:08.292Z,62.96
2019-05-01T21:10:53.167Z,62.87
2019-05-01T21:13:25.149Z,62.54
2019-05-01T21:16:01.543Z,63.17
2019-05-01T21:18:29.172Z,63.55
2019-05-01T21:21:00.234Z,63.41
2019-05-01T21:23:33.363Z,63.54
2019-05-01T21:26:04.014Z,63.49
2019-05-01T21:28:34.984Z,63.91
2019-05-01T21:31:06.078Z,63.64
2019-05-01T21:33:40.838Z,64.29
2019-05-01T21:36:09.835Z,64.60
2019-05-01T21:38:40.823Z,64.25
2019-05-01T21:41:11.959Z,64.65
2019-05-01T21:43:43.003Z,65.05
2019-05-01T21:46:13.989Z,65.25
2019-05-01T21:48:44.967Z,65.34
2019-05-01T21:51:15.953Z,64.96
2019-05-01T21:53:46.922Z,65.50
2019-05-01T21:56:17.933Z,64.98
2019-05-01T21:58:48.937Z,65.35
2019-05-01T22:01:20.282Z,65.46
2019-05-01T22:03:52.514Z,65.68
2019-05-01T22:06:24.044Z,65.31
2019-05-01T22:08:55.118Z,65.68
2019-05-01T22:11:26.203Z,65.09
2019-05-01T22:14:00.231Z,65.86
2019-05-01T22:16:31.252Z,65.62
2019-05-01T22:19:08.059Z,65.87
2019-05-01T22:21:55.804Z,66.24
2019-05-01T22:24:41.116Z,65.95
2019-05-01T22:27:16.730Z,65.73
2019-05-01T22:30:10.955Z,66.11
2019-05-01T22:32:47.123Z,66.58
2019-05-01T22:35:23.762Z,66.11
2019-05-01T22:37:55.128Z,65.61
2019-05-01T22:41:04.764Z,65.40
2019-05-01T22:43:25.939Z,65.12
2019-05-01T22:46:01.548Z,64.13
2019-05-01T22:48:32.185Z,64.36
2019-05-01T22:51:10.549Z,64.28
2019-05-01T22:53:41.550Z,63.93
2019-05-01T22:56:12.598Z,63.57
2019-05-01T22:58:43.654Z,63.77
2019-05-01T23:01:18.208Z,62.68
2019-05-01T23:03:52.644Z,61.90
2019-05-01T23:06:23.787Z,61.40
2019-05-01T23:08:54.771Z,61.38
2019-05-01T23:11:28.696Z,61.69
2019-05-01T23:13:59.731Z,60.79
2019-05-01T23:16:34.994Z,62.25
2019-05-01T23:19:06.314Z,61.76
2019-05-01T23:21:37.437Z,61.07
2019-05-01T23:24:08.619Z,61.21
2019-05-01T23:26:39.686Z,61.22
2019-05-01T23:29:10.716Z,61.25
2019-05-01T23:31:41.700Z,60.25
2019-05-01T23:34:12.660Z,60.20
2019-05-01T23:36:44.700Z,60.71
2019-05-01T23:39:16.031Z,60.34
2019-05-01T23:41:47.284Z,59.36
2019-05-01T23:44:18.490Z,59.80
2019-05-01T23:46:49.625Z,60.15
2019-05-01T23:49:20.632Z,59.79
2019-05-01T23:51:51.767Z,59.85
2019-05-01T23:54:22.718Z,60.56
2019-05-01T23:56:53.799Z,60.06
2019-05-01T23:59:24.902Z,59.42
